Time,TemperatureF,DewpointF,PressureIn,WindDirection,WindDirectionDegrees,WindSpeedMPH,WindSpeedGustMPH,Humidity,HourlyPrecipIn,Conditions,Clouds,dailyrainin,SoftwareType,DateUTC
2013-01-30 00:02:00,53.2,50.9,29.16,SW,225,0.0,0.0,92,0.00,,,0.00,VWS V14.01,2013-01-30 00:02:00,
2013-01-30 00:07:00,53.2,50.9,29.15,WSW,247,0.0,0.0,92,0.00,,,0.00,VWS V14.01,2013-01-30 00:07:00,
2013-01-30 00:13:00,53.4,51.1,29.15,NW,315,0.0,0.0,92,0.00,,,0.00,VWS V14.01,2013-01-30 00:13:00,
2013-01-30 00:19:00,53.4,51.1,29.15,WSW,247,0.0,0.0,92,0.00,,,0.00,VWS V14.01,2013-01-30 00:19:00,
2013-01-30 00:25:00,53.4,51.1,29.15,WSW,247,0.0,0.0,92,0.00,,,0.00,VWS V14.01,2013-01-30 00:25:00,
2013-01-30 00:30:00,53.4,51.1,29.15,WNW,292,0.0,0.0,92,0.00,,,0.00,VWS V14.01,2013-01-30 00:30:00,
2013-01-30 00:36:00,53.4,51.1,29.15,WNW,292,0.0,0.0,92,0.00,,,0.00,VWS V14.01,2013-01-30 00:36:00,
2013-01-30 00:42:00,53.4,51.1,29.14,SW,225,0.0,0.0,92,0.00,,,0.00,VWS V14.01,2013-01-30 00:42:00,
2013-01-30 00:47:00,53.4,51.1,29.14,ENE,67,0.0,0.0,92,0.00,,,0.00,VWS V14.01,2013-01-30 00:47:00,
2013-01-30 00:53:00,53.4,51.1,29.15,NNW,337,0.0,0.0,92,0.00,,,0.00,VWS V14.01,2013-01-30 00:53:00,
2013-01-30 00:59:00,53.4,51.1,29.14,WSW,247,0.0,0.0,92,0.00,,,0.00,VWS V14.01,2013-01-30 00:59:00,
2013-01-30 01:04:00,53.4,51.1,29.14,WSW,247,0.0,0.0,92,0.00,,,0.00,VWS V14.01,2013-01-30 01:04:00,
2013-01-30 01:09:00,53.4,51.1,29.14,WSW,247,0.0,0.0,92,0.00,,,0.00,VWS V14.01,2013-01-30 01:09:00,
2013-01-30 01:15:00,53.4,51.1,29.13,ESE,112,0.0,0.0,92,0.00,,,0.00,VWS V14.01,2013-01-30 01:15:00,
2013-01-30 01:21:00,53.4,51.1,29.13,SSW,202,0.0,0.0,92,0.00,,,0.00,VWS V14.01,2013-01-30 01:21:00,
2013-01-30 01:26:00,53.2,51.2,29.14,SW,225,0.0,0.0,93,0.00,,,0.00,VWS V14.01,2013-01-30 01:26:00,
2013-01-30 01:31:00,53.2,51.2,29.13,WSW,247,0.0,0.0,93,0.00,,,0.00,VWS V14.01,2013-01-30 01:31:00,
2013-01-30 01:37:00,53.2,51.2,29.13,WSW,247,0.0,0.0,93,0.00,,,0.00,VWS V14.01,2013-01-30 01:37:00,
2013-01-30 01:43:00,53.2,51.2,29.13,East,90,0.0,0.0,93,0.00,,,0.00,VWS V14.01,2013-01-30 01:43:00,
2013-01-30 01:49:00,53.2,51.2,29.13,ENE,67,0.0,0.0,93,0.00,,,0.00,VWS V14.01,2013-01-30 01:49:00,
2013-01-30 01:54:00,53.2,51.2,29.13,WNW,292,0.0,0.0,93,0.00,,,0.00,VWS V14.01,2013-01-30 01:54:00,
2013-01-30 01:59:00,53.1,51.1,29.13,NNE,22,0.0,0.0,93,0.00,,,0.00,VWS V14.01,2013-01-30 01:59:00,
2013-01-30 02:04:00,53.1,51.1,29.13,SW,225,0.0,0.0,93,0.00,,,0.00,VWS V14.01,2013-01-30 02:04:00,
2013-01-30 02:09:00,53.1,51.1,29.13,SSW,202,0.0,0.0,93,0.00,,,0.00,VWS V14.01,2013-01-30 02:09:00,
2013-01-30 02:15:00,52.9,50.9,29.13,North,0,0.0,0.0,93,0.00,,,0.00,VWS V14.01,2013-01-30 02:15:00,
2013-01-30 02:21:00,52.9,50.9,29.13,SSW,202,0.0,0.0,93,0.02,,,0.02,VWS V14.01,2013-01-30 02:21:00,
2013-01-30 02:27:00,52.9,51.2,29.12,SW,225,0.0,0.0,94,0.02,,,0.02,VWS V14.01,2013-01-30 02:27:00,
2013-01-30 02:33:00,52.9,51.2,29.12,NNW,337,0.0,0.0,94,0.02,,,0.02,VWS V14.01,2013-01-30 02:33:00,
2013-01-30 02:38:00,52.9,51.2,29.13,West,270,0.0,0.0,94,0.02,,,0.02,VWS V14.01,2013-01-30 02:38:00,
2013-01-30 02:43:00,52.9,51.2,29.12,SSW,202,0.0,0.0,94,0.02,,,0.02,VWS V14.01,2013-01-30 02:43:00,
2013-01-30 02:48:00,52.9,51.2,29.12,WSW,247,0.0,0.0,94,0.02,,,0.02,VWS V14.01,2013-01-30 02:48:00,
2013-01-30 02:53:00,52.9,51.2,29.11,WSW,247,0.0,0.0,94,0.02,,,0.02,VWS V14.01,2013-01-30 02:53:00,
2013-01-30 02:59:00,53.1,51.4,29.12,West,270,0.0,0.0,94,0.02,,,0.02,VWS V14.01,2013-01-30 02:59:00,
2013-01-30 03:05:00,53.2,51.5,29.12,ENE,67,0.0,0.0,94,0.02,,,0.02,VWS V14.01,2013-01-30 03:05:00,
2013-01-30 03:10:00,53.2,51.5,29.11,WSW,247,0.0,0.0,94,0.02,,,0.02,VWS V14.01,2013-01-30 03:10:00,
2013-01-30 03:16:00,53.2,51.5,29.12,North,0,0.0,0.0,94,0.04,,,0.04,VWS V14.01,2013-01-30 03:16:00,
2013-01-30 03:21:00,53.2,51.5,29.11,WSW,247,0.0,0.0,94,0.02,,,0.04,VWS V14.01,2013-01-30 03:21:00,
2013-01-30 03:27:00,53.2,51.5,29.11,West,270,0.0,0.0,94,0.02,,,0.04,VWS V14.01,2013-01-30 03:27:00,
2013-01-30 03:32:00,53.1,51.4,29.11,NNE,22,0.0,0.0,94,0.02,,,0.04,VWS V14.01,2013-01-30 03:32:00,
2013-01-30 03:37:00,52.9,51.2,29.13,West,270,0.0,0.0,94,0.04,,,0.06,VWS V14.01,2013-01-30 03:37:00,
2013-01-30 03:43:00,52.3,50.3,29.13,NW,315,0.0,0.0,93,0.06,,,0.08,VWS V14.01,2013-01-30 03:43:00,
2013-01-30 03:49:00,51.6,49.7,29.14,NNW,337,0.0,0.0,93,0.08,,,0.10,VWS V14.01,2013-01-30 03:49:00,
2013-01-30 03:54:00,50.9,49.0,29.15,NW,315,0.0,0.0,93,0.08,,,0.10,VWS V14.01,2013-01-30 03:54:00,
2013-01-30 04:00:00,50.2,48.3,29.15,NW,315,0.0,0.0,93,0.08,,,0.10,VWS V14.01,2013-01-30 04:00:00,
2013-01-30 04:05:00,49.8,47.9,29.15,WNW,292,0.0,0.0,93,0.08,,,0.10,VWS V14.01,2013-01-30 04:05:00,
2013-01-30 04:11:00,49.3,47.4,29.16,NW,315,0.0,0.0,93,0.08,,,0.10,VWS V14.01,2013-01-30 04:11:00,
2013-01-30 04:17:00,49.3,47.4,29.15,WNW,292,0.0,0.0,93,0.06,,,0.10,VWS V14.01,2013-01-30 04:17:00,
2013-01-30 04:23:00,49.1,47.2,29.16,NW,315,0.0,0.0,93,0.08,,,0.12,VWS V14.01,2013-01-30 04:23:00,
2013-01-30 04:29:00,48.9,47.2,29.16,West,270,0.0,0.0,94,0.08,,,0.12,VWS V14.01,2013-01-30 04:29:00,
2013-01-30 04:35:00,48.9,47.2,29.17,WNW,292,0.0,0.0,94,0.08,,,0.12,VWS V14.01,2013-01-30 04:35:00,
2013-01-30 04:40:00,48.9,47.2,29.17,WNW,292,0.0,0.0,94,0.04,,,0.12,VWS V14.01,2013-01-30 04:40:00,
2013-01-30 04:46:00,48.9,47.2,29.17,West,270,0.0,0.0,94,0.04,,,0.12,VWS V14.01,2013-01-30 04:46:00,
2013-01-30 04:51:00,48.7,47.0,29.17,SW,225,0.0,0.0,94,0.04,,,0.14,VWS V14.01,2013-01-30 04:51:00,
2013-01-30 04:57:00,48.7,47.0,29.17,WSW,247,0.0,0.0,94,0.04,,,0.14,VWS V14.01,2013-01-30 04:57:00,
2013-01-30 05:03:00,48.7,47.0,29.18,WSW,247,0.0,0.0,94,0.04,,,0.14,VWS V14.01,2013-01-30 05:03:00,
2013-01-30 05:04:00,48.7,47.0,29.17,WSW,247,0.0,0.0,94,0.04,,,0.14,VWS V14.01,2013-01-30 05:04:00,
2013-01-30 05:05:00,48.7,47.0,29.17,WSW,247,0.0,0.0,94,0.04,,,0.14,VWS V14.01,2013-01-30 05:05:00,
2013-01-30 05:09:00,48.7,47.0,29.17,WSW,247,0.0,0.0,94,0.04,,,0.14,VWS V14.01,2013-01-30 05:09:00,
2013-01-30 05:14:00,48.7,47.0,29.17,SW,225,0.0,0.0,94,0.04,,,0.14,VWS V14.01,2013-01-30 05:14:00,
2013-01-30 05:20:00,48.7,47.0,29.16,SW,225,0.0,0.0,94,0.04,,,0.14,VWS V14.01,2013-01-30 05:20:00,
2013-01-30 05:26:00,48.7,47.0,29.17,SW,225,0.0,0.0,94,0.02,,,0.14,VWS V14.01,2013-01-30 05:26:00,
2013-01-30 05:32:00,48.7,47.0,29.17,SSW,202,0.0,0.0,94,0.02,,,0.14,VWS V14.01,2013-01-30 05:32:00,
2013-01-30 05:37:00,48.6,47.0,29.18,WSW,247,0.0,0.0,94,0.02,,,0.14,VWS V14.01,2013-01-30 05:37:00,
2013-01-30 05:43:00,48.4,46.8,29.18,WNW,292,0.0,0.0,94,0.02,,,0.14,VWS V14.01,2013-01-30 05:43:00,
2013-01-30 05:49:00,48.4,46.8,29.17,West,270,0.0,0.0,94,0.02,,,0.14,VWS V14.01,2013-01-30 05:49:00,
2013-01-30 05:55:00,48.2,46.6,29.17,WSW,247,0.0,0.0,94,0.00,,,0.14,VWS V14.01,2013-01-30 05:55:00,
2013-01-30 06:00:00,48.0,46.4,29.18,WSW,247,0.0,0.0,94,0.00,,,0.14,VWS V14.01,2013-01-30 06:00:00,
2013-01-30 06:06:00,48.0,46.4,29.19,WSW,247,0.0,0.0,94,0.00,,,0.14,VWS V14.01,2013-01-30 06:06:00,
2013-01-30 06:11:00,48.0,46.4,29.18,WSW,247,0.0,0.0,94,0.00,,,0.14,VWS V14.01,2013-01-30 06:11:00,
2013-01-30 06:17:00,47.8,46.2,29.19,WSW,247,0.0,0.0,94,0.00,,,0.14,VWS V14.01,2013-01-30 06:17:00,
2013-01-30 06:22:00,47.8,46.2,29.19,WSW,247,0.0,0.0,94,0.00,,,0.14,VWS V14.01,2013-01-30 06:22:00,
2013-01-30 06:27:00,47.5,45.9,29.19,WNW,292,0.0,0.0,94,0.00,,,0.14,VWS V14.01,2013-01-30 06:27:00,
2013-01-30 06:33:00,47.3,45.7,29.19,West,270,0.0,0.0,94,0.00,,,0.14,VWS V14.01,2013-01-30 06:33:00,
2013-01-30 06:39:00,47.1,45.5,29.20,West,270,0.0,0.0,94,0.00,,,0.14,VWS V14.01,2013-01-30 06:39:00,
2013-01-30 06:45:00,46.9,45.3,29.20,WNW,292,0.0,0.0,94,0.00,,,0.14,VWS V14.01,2013-01-30 06:45:00,
2013-01-30 06:51:00,46.8,45.2,29.20,NW,315,0.0,0.0,94,0.00,,,0.14,VWS V14.01,2013-01-30 06:51:00,
2013-01-30 06:57:00,46.6,45.0,29.21,West,270,0.0,0.0,94,0.00,,,0.14,VWS V14.01,2013-01-30 06:57:00,
2013-01-30 07:03:00,46.4,44.8,29.21,West,270,0.0,0.0,94,0.00,,,0.14,VWS V14.01,2013-01-30 07:03:00,
2013-01-30 07:09:00,46.2,44.6,29.21,WSW,247,0.0,0.0,94,0.00,,,0.14,VWS V14.01,2013-01-30 07:09:00,
2013-01-30 07:15:00,46.2,44.6,29.22,WNW,292,0.0,0.0,94,0.00,,,0.14,VWS V14.01,2013-01-30 07:15:00,
2013-01-30 07:20:00,46.4,44.8,29.22,WNW,292,0.0,0.0,94,0.00,,,0.14,VWS V14.01,2013-01-30 07:20:00,
2013-01-30 07:26:00,46.6,45.0,29.22,NW,315,0.0,0.0,94,0.00,,,0.14,VWS V14.01,2013-01-30 07:26:00,
2013-01-30 07:32:00,46.6,45.0,29.23,West,270,0.0,0.0,94,0.00,,,0.14,VWS V14.01,2013-01-30 07:32:00,
2013-01-30 07:38:00,46.6,45.0,29.22,SSW,202,0.0,0.0,94,0.00,,,0.14,VWS V14.01,2013-01-30 07:38:00,
2013-01-30 07:43:00,46.2,44.6,29.23,West,270,0.0,0.0,94,0.00,,,0.14,VWS V14.01,2013-01-30 07:43:00,
2013-01-30 07:49:00,46.2,44.6,29.23,SW,225,0.0,0.0,94,0.00,,,0.14,VWS V14.01,2013-01-30 07:49:00,
2013-01-30 07:55:00,46.4,44.8,29.23,WSW,247,0.0,0.0,94,0.00,,,0.14,VWS V14.01,2013-01-30 07:55:00,
2013-01-30 08:00:00,46.6,45.2,29.24,WNW,292,0.0,0.0,95,0.00,,,0.14,VWS V14.01,2013-01-30 08:00:00,
2013-01-30 08:06:00,46.8,45.5,29.25,West,270,0.0,0.0,95,0.00,,,0.14,VWS V14.01,2013-01-30 08:06:00,
2013-01-30 08:12:00,46.9,45.5,29.25,West,270,0.0,0.0,95,0.00,,,0.14,VWS V14.01,2013-01-30 08:12:00,
2013-01-30 08:18:00,47.1,45.7,29.25,WSW,247,0.0,0.0,95,0.00,,,0.14,VWS V14.01,2013-01-30 08:18:00,
2013-01-30 08:24:00,47.1,45.7,29.24,WNW,292,0.0,0.0,95,0.00,,,0.14,VWS V14.01,2013-01-30 08:24:00,
2013-01-30 08:29:00,47.3,45.9,29.24,WSW,247,0.0,0.0,95,0.00,,,0.14,VWS V14.01,2013-01-30 08:29:00,
2013-01-30 08:35:00,48.7,47.6,29.25,WSW,247,0.0,0.0,96,0.00,,,0.14,VWS V14.01,2013-01-30 08:35:00,
2013-01-30 08:41:00,50.7,49.6,29.26,WSW,247,0.0,0.0,96,0.00,,,0.14,VWS V14.01,2013-01-30 08:41:00,
2013-01-30 08:46:00,50.4,48.7,29.25,NW,315,0.0,0.0,94,0.00,,,0.14,VWS V14.01,2013-01-30 08:46:00,
2013-01-30 08:52:00,49.8,47.6,29.26,WNW,292,0.0,0.0,92,0.00,,,0.14,VWS V14.01,2013-01-30 08:52:00,
2013-01-30 08:58:00,49.3,47.1,29.26,NW,315,0.0,0.0,92,0.00,,,0.14,VWS V14.01,2013-01-30 08:58:00,
2013-01-30 09:03:00,49.1,46.9,29.26,SW,225,0.0,0.0,92,0.00,,,0.14,VWS V14.01,2013-01-30 09:03:00,
2013-01-30 09:09:00,49.1,46.9,29.27,WNW,292,0.0,0.0,92,0.00,,,0.14,VWS V14.01,2013-01-30 09:09:00,
2013-01-30 09:15:00,49.1,46.6,29.27,WSW,247,0.0,0.0,91,0.00,,,0.14,VWS V14.01,2013-01-30 09:15:00,
2013-01-30 09:20:00,49.1,46.6,29.27,WSW,247,0.0,0.0,91,0.00,,,0.14,VWS V14.01,2013-01-30 09:20:00,
2013-01-30 09:25:00,49.3,46.8,29.27,NNW,337,0.0,0.0,91,0.00,,,0.14,VWS V14.01,2013-01-30 09:25:00,
2013-01-30 09:31:00,49.1,46.3,29.28,West,270,0.0,0.0,90,0.00,,,0.14,VWS V14.01,2013-01-30 09:31:00,
2013-01-30 09:37:00,50.4,47.9,29.28,SW,225,0.0,0.0,91,0.00,,,0.14,VWS V14.01,2013-01-30 09:37:00,
2013-01-30 09:42:00,50.9,48.1,29.28,West,270,0.0,0.0,90,0.00,,,0.14,VWS V14.01,2013-01-30 09:42:00,
2013-01-30 09:47:00,51.6,48.2,29.28,WNW,292,0.0,0.0,88,0.00,,,0.14,VWS V14.01,2013-01-30 09:47:00,
2013-01-30 09:52:00,52.0,48.3,29.29,West,270,0.0,0.0,87,0.00,,,0.14,VWS V14.01,2013-01-30 09:52:00,
2013-01-30 09:58:00,52.3,48.2,29.29,NW,315,0.0,0.0,86,0.00,,,0.14,VWS V14.01,2013-01-30 09:58:00,
2013-01-30 10:03:00,52.5,48.4,29.29,NW,315,0.0,0.0,86,0.00,,,0.14,VWS V14.01,2013-01-30 10:03:00,
2013-01-30 10:08:00,52.3,47.9,29.29,NNW,337,0.0,0.0,85,0.00,,,0.14,VWS V14.01,2013-01-30 10:08:00,
2013-01-30 10:14:00,52.5,48.1,29.30,WSW,247,0.0,0.0,85,0.00,,,0.14,VWS V14.01,2013-01-30 10:14:00,
2013-01-30 10:20:00,52.9,48.2,29.30,WNW,292,0.0,0.0,84,0.00,,,0.14,VWS V14.01,2013-01-30 10:20:00,
2013-01-30 10:26:00,53.4,48.4,29.30,North,0,0.0,0.0,83,0.00,,,0.14,VWS V14.01,2013-01-30 10:26:00,
2013-01-30 10:31:00,55.2,49.8,29.30,WSW,247,0.0,0.0,82,0.00,,,0.14,VWS V14.01,2013-01-30 10:31:00,
2013-01-30 10:37:00,58.6,51.4,29.30,West,270,0.0,0.0,77,0.00,,,0.14,VWS V14.01,2013-01-30 10:37:00,
2013-01-30 10:43:00,61.0,51.9,29.31,West,270,0.0,0.0,72,0.00,,,0.14,VWS V14.01,2013-01-30 10:43:00,
2013-01-30 10:49:00,62.2,51.1,29.31,NW,315,0.0,0.0,67,0.00,,,0.14,VWS V14.01,2013-01-30 10:49:00,
2013-01-30 10:55:00,62.8,50.9,29.31,NW,315,0.0,0.0,65,0.00,,,0.14,VWS V14.01,2013-01-30 10:55:00,
2013-01-30 11:01:00,63.1,50.7,29.32,NNW,337,0.0,0.0,64,0.00,,,0.14,VWS V14.01,2013-01-30 11:01:00,
2013-01-30 11:06:00,61.9,48.8,29.32,NW,315,0.0,0.0,62,0.00,,,0.14,VWS V14.01,2013-01-30 11:06:00,
2013-01-30 11:12:00,59.7,47.5,29.32,WNW,292,0.0,0.0,64,0.00,,,0.14,VWS V14.01,2013-01-30 11:12:00,
2013-01-30 11:18:00,59.5,47.7,29.32,NNW,337,0.0,0.0,65,0.00,,,0.14,VWS V14.01,2013-01-30 11:18:00,
2013-01-30 11:24:00,59.5,47.7,29.32,NW,315,0.0,0.0,65,0.00,,,0.14,VWS V14.01,2013-01-30 11:24:00,
2013-01-30 11:30:00,60.1,48.3,29.33,West,270,0.0,0.0,65,0.00,,,0.14,VWS V14.01,2013-01-30 11:30:00,
2013-01-30 11:35:00,61.0,48.3,29.33,NNW,337,0.0,0.0,63,0.00,,,0.14,VWS V14.01,2013-01-30 11:35:00,
2013-01-30 11:41:00,60.6,47.1,29.33,NW,315,0.0,0.0,61,0.00,,,0.14,VWS V14.01,2013-01-30 11:41:00,
2013-01-30 11:47:00,60.4,47.3,29.33,WNW,292,0.0,0.0,62,0.00,,,0.14,VWS V14.01,2013-01-30 11:47:00,
2013-01-30 11:53:00,59.5,45.6,29.33,WNW,292,0.0,0.0,60,0.00,,,0.14,VWS V14.01,2013-01-30 11:53:00,
2013-01-30 11:59:00,59.4,46.0,29.33,WNW,292,0.0,0.0,61,0.00,,,0.14,VWS V14.01,2013-01-30 11:59:00,
2013-01-30 12:04:00,59.5,46.1,29.33,WNW,292,0.0,0.0,61,0.00,,,0.14,VWS V14.01,2013-01-30 12:04:00,
2013-01-30 12:09:00,59.5,46.1,29.34,NW,315,0.0,0.0,61,0.00,,,0.14,VWS V14.01,2013-01-30 12:09:00,
2013-01-30 12:15:00,59.7,45.8,29.34,West,270,0.0,0.0,60,0.00,,,0.14,VWS V14.01,2013-01-30 12:15:00,
2013-01-30 12:20:00,59.7,45.8,29.34,WNW,292,0.0,0.0,60,0.00,,,0.14,VWS V14.01,2013-01-30 12:20:00,
2013-01-30 12:26:00,58.6,44.8,29.35,WNW,292,0.0,0.0,60,0.00,,,0.14,VWS V14.01,2013-01-30 12:26:00,
2013-01-30 12:32:00,57.0,43.7,29.34,NW,315,0.0,0.0,61,0.00,,,0.14,VWS V14.01,2013-01-30 12:32:00,
2013-01-30 12:38:00,56.1,43.3,29.36,NNW,337,0.0,0.0,62,0.00,,,0.14,VWS V14.01,2013-01-30 12:38:00,
2013-01-30 12:43:00,55.9,43.5,29.35,NNW,337,0.0,0.0,63,0.00,,,0.14,VWS V14.01,2013-01-30 12:43:00,
2013-01-30 12:49:00,55.2,43.2,29.35,WSW,247,0.0,0.0,64,0.00,,,0.14,VWS V14.01,2013-01-30 12:49:00,
2013-01-30 12:55:00,55.4,43.4,29.35,NW,315,0.0,0.0,64,0.00,,,0.14,VWS V14.01,2013-01-30 12:55:00,
2013-01-30 13:01:00,56.1,43.7,29.36,NW,315,0.0,0.0,63,0.00,,,0.14,VWS V14.01,2013-01-30 13:01:00,
2013-01-30 13:07:00,56.8,43.9,29.36,NW,315,0.0,0.0,62,0.00,,,0.14,VWS V14.01,2013-01-30 13:07:00,
2013-01-30 13:12:00,56.3,42.6,29.37,WNW,292,0.0,0.0,60,0.00,,,0.14,VWS V14.01,2013-01-30 13:12:00,
2013-01-30 13:18:00,55.6,42.0,29.37,NW,315,0.0,0.0,60,0.00,,,0.14,VWS V14.01,2013-01-30 13:18:00,
2013-01-30 13:24:00,54.7,40.7,29.37,WSW,247,0.0,0.0,59,0.00,,,0.14,VWS V14.01,2013-01-30 13:24:00,
2013-01-30 13:30:00,54.1,40.1,29.38,NE,45,0.0,0.0,59,0.00,,,0.14,VWS V14.01,2013-01-30 13:30:00,
2013-01-30 13:35:00,53.8,40.3,29.37,West,270,0.0,0.0,60,0.00,,,0.14,VWS V14.01,2013-01-30 13:35:00,
2013-01-30 13:41:00,53.4,39.9,29.38,NW,315,0.0,0.0,60,0.00,,,0.14,VWS V14.01,2013-01-30 13:41:00,
2013-01-30 13:47:00,53.4,40.3,29.38,WSW,247,0.0,0.0,61,0.00,,,0.14,VWS V14.01,2013-01-30 13:47:00,
2013-01-30 13:53:00,53.2,40.1,29.38,NNW,337,0.0,0.0,61,0.00,,,0.14,VWS V14.01,2013-01-30 13:53:00,
2013-01-30 13:58:00,53.2,39.7,29.39,NW,315,0.0,0.0,60,0.00,,,0.14,VWS V14.01,2013-01-30 13:58:00,
2013-01-30 14:04:00,53.2,39.7,29.39,West,270,0.0,0.0,60,0.00,,,0.14,VWS V14.01,2013-01-30 14:04:00,
2013-01-30 14:10:00,53.1,39.6,29.39,NW,315,0.0,0.0,60,0.00,,,0.14,VWS V14.01,2013-01-30 14:10:00,
2013-01-30 14:16:00,52.9,39.8,29.39,WSW,247,0.0,0.0,61,0.00,,,0.14,VWS V14.01,2013-01-30 14:16:00,
2013-01-30 14:22:00,52.9,39.4,29.39,WNW,292,0.0,0.0,60,0.00,,,0.14,VWS V14.01,2013-01-30 14:22:00,
2013-01-30 14:27:00,52.7,38.8,29.40,WNW,292,0.0,0.0,59,0.00,,,0.14,VWS V14.01,2013-01-30 14:27:00,
2013-01-30 14:33:00,52.7,39.2,29.40,NW,315,0.0,0.0,60,0.00,,,0.14,VWS V14.01,2013-01-30 14:33:00,
2013-01-30 14:39:00,52.5,39.0,29.40,WNW,292,0.0,0.0,60,0.00,,,0.14,VWS V14.01,2013-01-30 14:39:00,
2013-01-30 14:44:00,52.3,38.8,29.40,WSW,247,0.0,0.0,60,0.00,,,0.14,VWS V14.01,2013-01-30 14:44:00,
2013-01-30 14:49:00,52.2,38.8,29.40,NW,315,0.0,0.0,60,0.00,,,0.14,VWS V14.01,2013-01-30 14:49:00,
2013-01-30 14:55:00,52.2,39.2,29.39,WNW,292,0.0,0.0,61,0.00,,,0.14,VWS V14.01,2013-01-30 14:55:00,
2013-01-30 15:01:00,52.2,39.2,29.40,West,270,0.0,0.0,61,0.00,,,0.14,VWS V14.01,2013-01-30 15:01:00,
2013-01-30 15:06:00,52.2,39.2,29.41,NNW,337,0.0,0.0,61,0.00,,,0.14,VWS V14.01,2013-01-30 15:06:00,
2013-01-30 15:12:00,52.2,38.8,29.41,SSW,202,0.0,0.0,60,0.00,,,0.14,VWS V14.01,2013-01-30 15:12:00,
2013-01-30 15:17:00,52.0,38.6,29.41,SE,135,0.0,0.0,60,0.00,,,0.14,VWS V14.01,2013-01-30 15:17:00,
2013-01-30 15:23:00,51.6,38.2,29.41,WNW,292,0.0,0.0,60,0.00,,,0.14,VWS V14.01,2013-01-30 15:23:00,
2013-01-30 15:29:00,51.6,38.6,29.42,NNW,337,0.0,0.0,61,0.00,,,0.14,VWS V14.01,2013-01-30 15:29:00,
2013-01-30 15:35:00,51.3,38.3,29.43,WNW,292,0.0,0.0,61,0.00,,,0.14,VWS V14.01,2013-01-30 15:35:00,
2013-01-30 15:40:00,51.3,38.3,29.43,NE,45,0.0,0.0,61,0.00,,,0.14,VWS V14.01,2013-01-30 15:40:00,
2013-01-30 15:45:00,51.1,38.1,29.43,NW,315,0.0,0.0,61,0.00,,,0.14,VWS V14.01,2013-01-30 15:45:00,
2013-01-30 15:51:00,50.9,38.0,29.43,NW,315,0.0,0.0,61,0.00,,,0.14,VWS V14.01,2013-01-30 15:51:00,
2013-01-30 15:57:00,50.7,37.3,29.44,North,0,0.0,0.0,60,0.00,,,0.14,VWS V14.01,2013-01-30 15:57:00,
2013-01-30 16:03:00,50.7,37.3,29.44,WNW,292,0.0,0.0,60,0.00,,,0.14,VWS V14.01,2013-01-30 16:03:00,
2013-01-30 16:09:00,50.7,37.8,29.44,NW,315,0.0,0.0,61,0.00,,,0.14,VWS V14.01,2013-01-30 16:09:00,
2013-01-30 16:14:00,50.7,38.2,29.44,NNW,337,0.0,0.0,62,0.00,,,0.14,VWS V14.01,2013-01-30 16:14:00,
2013-01-30 16:20:00,51.3,39.2,29.44,SW,225,0.0,0.0,63,0.00,,,0.14,VWS V14.01,2013-01-30 16:20:00,
2013-01-30 16:25:00,51.6,39.0,29.45,West,270,0.0,0.0,62,0.00,,,0.14,VWS V14.01,2013-01-30 16:25:00,
2013-01-30 16:31:00,52.0,39.0,29.44,NNW,337,0.0,0.0,61,0.00,,,0.14,VWS V14.01,2013-01-30 16:31:00,
2013-01-30 16:37:00,51.6,38.6,29.44,West,270,0.0,0.0,61,0.00,,,0.14,VWS V14.01,2013-01-30 16:37:00,
2013-01-30 16:42:00,51.6,39.0,29.44,West,270,0.0,0.0,62,0.00,,,0.14,VWS V14.01,2013-01-30 16:42:00,
2013-01-30 16:48:00,51.4,38.8,29.45,West,270,0.0,0.0,62,0.00,,,0.14,VWS V14.01,2013-01-30 16:48:00,
2013-01-30 16:54:00,51.3,38.7,29.45,WSW,247,0.0,0.0,62,0.00,,,0.14,VWS V14.01,2013-01-30 16:54:00,
2013-01-30 17:00:00,50.9,38.4,29.45,North,0,0.0,0.0,62,0.00,,,0.14,VWS V14.01,2013-01-30 17:00:00,
2013-01-30 17:05:00,50.7,38.2,29.46,WSW,247,0.0,0.0,62,0.00,,,0.14,VWS V14.01,2013-01-30 17:05:00,
2013-01-30 17:11:00,50.5,38.0,29.46,WNW,292,0.0,0.0,62,0.00,,,0.14,VWS V14.01,2013-01-30 17:11:00,
2013-01-30 17:16:00,50.5,38.0,29.46,WNW,292,0.0,0.0,62,0.00,,,0.14,VWS V14.01,2013-01-30 17:16:00,
2013-01-30 17:22:00,50.4,37.9,29.47,West,270,0.0,0.0,62,0.00,,,0.14,VWS V14.01,2013-01-30 17:22:00,
2013-01-30 17:27:00,49.8,37.3,29.47,WNW,292,0.0,0.0,62,0.00,,,0.14,VWS V14.01,2013-01-30 17:27:00,
2013-01-30 17:33:00,49.1,37.1,29.48,West,270,0.0,0.0,63,0.00,,,0.14,VWS V14.01,2013-01-30 17:33:00,
2013-01-30 17:38:00,48.7,36.7,29.49,NNW,337,0.0,0.0,63,0.00,,,0.14,VWS V14.01,2013-01-30 17:38:00,
2013-01-30 17:44:00,48.2,36.6,29.49,NW,315,0.0,0.0,64,0.00,,,0.14,VWS V14.01,2013-01-30 17:44:00,
2013-01-30 17:49:00,48.0,36.4,29.49,NNE,22,0.0,0.0,64,0.00,,,0.14,VWS V14.01,2013-01-30 17:49:00,
2013-01-30 17:55:00,47.8,36.6,29.49,NW,315,0.0,0.0,65,0.00,,,0.14,VWS V14.01,2013-01-30 17:55:00,
2013-01-30 18:01:00,47.7,36.9,29.49,WNW,292,0.0,0.0,66,0.00,,,0.14,VWS V14.01,2013-01-30 18:01:00,
2013-01-30 18:06:00,47.5,36.7,29.50,NW,315,0.0,0.0,66,0.00,,,0.14,VWS V14.01,2013-01-30 18:06:00,
2013-01-30 18:12:00,47.3,36.5,29.50,NNW,337,0.0,0.0,66,0.00,,,0.14,VWS V14.01,2013-01-30 18:12:00,
2013-01-30 18:18:00,47.3,36.9,29.51,East,90,0.0,0.0,67,0.00,,,0.14,VWS V14.01,2013-01-30 18:18:00,
2013-01-30 18:24:00,47.1,36.7,29.52,North,0,0.0,0.0,67,0.00,,,0.14,VWS V14.01,2013-01-30 18:24:00,
2013-01-30 18:30:00,47.1,36.7,29.52,WNW,292,0.0,0.0,67,0.00,,,0.14,VWS V14.01,2013-01-30 18:30:00,
2013-01-30 18:35:00,47.1,36.7,29.52,NNW,337,0.0,0.0,67,0.00,,,0.14,VWS V14.01,2013-01-30 18:35:00,
2013-01-30 18:41:00,46.9,36.9,29.52,West,270,0.0,0.0,68,0.00,,,0.14,VWS V14.01,2013-01-30 18:41:00,
2013-01-30 18:47:00,46.9,36.9,29.52,WSW,247,0.0,0.0,68,0.00,,,0.14,VWS V14.01,2013-01-30 18:47:00,
2013-01-30 18:53:00,46.9,36.9,29.52,NNW,337,0.0,0.0,68,0.00,,,0.14,VWS V14.01,2013-01-30 18:53:00,
2013-01-30 18:58:00,46.8,37.2,29.53,West,270,0.0,0.0,69,0.00,,,0.14,VWS V14.01,2013-01-30 18:58:00,
2013-01-30 19:04:00,46.6,37.0,29.53,West,270,0.0,0.0,69,0.00,,,0.14,VWS V14.01,2013-01-30 19:04:00,
2013-01-30 19:10:00,46.6,37.0,29.54,WNW,292,0.0,0.0,69,0.00,,,0.14,VWS V14.01,2013-01-30 19:10:00,
2013-01-30 19:16:00,46.2,36.6,29.54,WSW,247,0.0,0.0,69,0.00,,,0.14,VWS V14.01,2013-01-30 19:16:00,
2013-01-30 19:22:00,46.2,36.6,29.55,WNW,292,0.0,0.0,69,0.00,,,0.14,VWS V14.01,2013-01-30 19:22:00,
2013-01-30 19:28:00,46.2,37.0,29.55,NW,315,0.0,0.0,70,0.00,,,0.14,VWS V14.01,2013-01-30 19:28:00,
2013-01-30 19:34:00,46.2,37.0,29.55,SW,225,0.0,0.0,70,0.00,,,0.14,VWS V14.01,2013-01-30 19:34:00,
2013-01-30 19:40:00,46.0,37.1,29.55,WSW,247,0.0,0.0,71,0.00,,,0.14,VWS V14.01,2013-01-30 19:40:00,
2013-01-30 19:45:00,46.0,37.1,29.56,NW,315,0.0,0.0,71,0.00,,,0.14,VWS V14.01,2013-01-30 19:45:00,
2013-01-30 19:51:00,45.7,36.8,29.56,WNW,292,0.0,0.0,71,0.00,,,0.14,VWS V14.01,2013-01-30 19:51:00,
2013-01-30 19:56:00,45.7,36.8,29.56,SW,225,0.0,0.0,71,0.00,,,0.14,VWS V14.01,2013-01-30 19:56:00,
2013-01-30 20:02:00,45.7,37.2,29.56,WSW,247,0.0,0.0,72,0.00,,,0.14,VWS V14.01,2013-01-30 20:02:00,
2013-01-30 20:07:00,45.5,37.0,29.56,West,270,0.0,0.0,72,0.00,,,0.14,VWS V14.01,2013-01-30 20:07:00,
2013-01-30 20:12:00,45.3,36.8,29.56,West,270,0.0,0.0,72,0.00,,,0.14,VWS V14.01,2013-01-30 20:12:00,
2013-01-30 20:18:00,45.1,37.0,29.56,WNW,292,0.0,0.0,73,0.00,,,0.14,VWS V14.01,2013-01-30 20:18:00,
2013-01-30 20:23:00,45.0,36.9,29.56,West,270,0.0,0.0,73,0.00,,,0.14,VWS V14.01,2013-01-30 20:23:00,
2013-01-30 20:29:00,45.0,36.9,29.57,SSW,202,0.0,0.0,73,0.00,,,0.14,VWS V14.01,2013-01-30 20:29:00,
2013-01-30 20:35:00,45.0,36.9,29.57,WNW,292,0.0,0.0,73,0.00,,,0.14,VWS V14.01,2013-01-30 20:35:00,
2013-01-30 20:41:00,44.8,36.7,29.58,SSE,157,0.0,0.0,73,0.00,,,0.14,VWS V14.01,2013-01-30 20:41:00,
2013-01-30 20:46:00,44.6,36.8,29.58,West,270,0.0,0.0,74,0.00,,,0.14,VWS V14.01,2013-01-30 20:46:00,
2013-01-30 20:51:00,44.4,36.7,29.58,North,0,0.0,0.0,74,0.00,,,0.14,VWS V14.01,2013-01-30 20:51:00,
2013-01-30 20:57:00,44.4,36.7,29.57,WNW,292,0.0,0.0,74,0.00,,,0.14,VWS V14.01,2013-01-30 20:57:00,
2013-01-30 21:03:00,44.4,37.0,29.58,West,270,0.0,0.0,75,0.00,,,0.14,VWS V14.01,2013-01-30 21:03:00,
2013-01-30 21:09:00,44.4,37.0,29.58,WSW,247,0.0,0.0,75,0.00,,,0.14,VWS V14.01,2013-01-30 21:09:00,
2013-01-30 21:14:00,44.4,37.0,29.59,South,180,0.0,0.0,75,0.00,,,0.14,VWS V14.01,2013-01-30 21:14:00,
2013-01-30 21:20:00,44.4,37.0,29.59,East,90,0.0,0.0,75,0.00,,,0.14,VWS V14.01,2013-01-30 21:20:00,
2013-01-30 21:26:00,44.4,37.0,29.60,NW,315,0.0,0.0,75,0.00,,,0.14,VWS V14.01,2013-01-30 21:26:00,
2013-01-30 21:32:00,44.6,37.2,29.60,WSW,247,0.0,0.0,75,0.00,,,0.14,VWS V14.01,2013-01-30 21:32:00,
2013-01-30 21:37:00,44.8,37.4,29.61,NW,315,0.0,0.0,75,0.00,,,0.14,VWS V14.01,2013-01-30 21:37:00,
2013-01-30 21:43:00,44.8,37.4,29.61,WNW,292,0.0,0.0,75,0.00,,,0.14,VWS V14.01,2013-01-30 21:43:00,
2013-01-30 21:49:00,45.0,37.6,29.61,NNW,337,0.0,0.0,75,0.00,,,0.14,VWS V14.01,2013-01-30 21:49:00,
2013-01-30 21:55:00,45.0,37.6,29.61,NW,315,0.0,0.0,75,0.00,,,0.14,VWS V14.01,2013-01-30 21:55:00,
2013-01-30 22:01:00,45.0,37.6,29.61,West,270,0.0,0.0,75,0.00,,,0.14,VWS V14.01,2013-01-30 22:01:00,
2013-01-30 22:06:00,45.0,37.6,29.62,WNW,292,0.0,0.0,75,0.00,,,0.14,VWS V14.01,2013-01-30 22:06:00,
2013-01-30 22:12:00,44.6,37.2,29.62,WNW,292,0.0,0.0,75,0.00,,,0.14,VWS V14.01,2013-01-30 22:12:00,
2013-01-30 22:18:00,44.4,37.0,29.62,NW,315,0.0,0.0,75,0.00,,,0.14,VWS V14.01,2013-01-30 22:18:00,
2013-01-30 22:23:00,44.2,36.8,29.62,NW,315,0.0,0.0,75,0.00,,,0.14,VWS V14.01,2013-01-30 22:23:00,
2013-01-30 22:28:00,44.1,36.7,29.62,West,270,0.0,0.0,75,0.00,,,0.14,VWS V14.01,2013-01-30 22:28:00,
2013-01-30 22:34:00,43.9,36.5,29.62,NW,315,0.0,0.0,75,0.00,,,0.14,VWS V14.01,2013-01-30 22:34:00,
2013-01-30 22:40:00,43.7,36.6,29.63,WNW,292,0.0,0.0,76,0.00,,,0.14,VWS V14.01,2013-01-30 22:40:00,
2013-01-30 22:45:00,43.5,36.5,29.63,SW,225,0.0,0.0,76,0.00,,,0.14,VWS V14.01,2013-01-30 22:45:00,
2013-01-30 22:51:00,43.5,36.8,29.63,West,270,0.0,0.0,77,0.00,,,0.14,VWS V14.01,2013-01-30 22:51:00,
2013-01-30 22:57:00,43.3,36.6,29.64,North,0,0.0,0.0,77,0.00,,,0.14,VWS V14.01,2013-01-30 22:57:00,
2013-01-30 23:03:00,43.3,36.9,29.64,North,0,0.0,0.0,78,0.00,,,0.14,VWS V14.01,2013-01-30 23:03:00,
2013-01-30 23:08:00,43.2,36.8,29.64,West,270,0.0,0.0,78,0.00,,,0.14,VWS V14.01,2013-01-30 23:08:00,
2013-01-30 23:14:00,43.2,36.8,29.65,NNW,337,0.0,0.0,78,0.00,,,0.14,VWS V14.01,2013-01-30 23:14:00,
2013-01-30 23:19:00,43.2,37.1,29.65,WNW,292,0.0,0.0,79,0.00,,,0.14,VWS V14.01,2013-01-30 23:19:00,
2013-01-30 23:25:00,43.0,36.9,29.65,WNW,292,0.0,0.0,79,0.00,,,0.14,VWS V14.01,2013-01-30 23:25:00,
2013-01-30 23:31:00,43.2,37.1,29.66,NW,315,0.0,0.0,79,0.00,,,0.14,VWS V14.01,2013-01-30 23:31:00,
2013-01-30 23:37:00,43.0,37.3,29.65,WSW,247,0.0,0.0,80,0.00,,,0.14,VWS V14.01,2013-01-30 23:37:00,
2013-01-30 23:42:00,43.0,37.3,29.66,WNW,292,0.0,0.0,80,0.00,,,0.14,VWS V14.01,2013-01-30 23:42:00,
2013-01-30 23:48:00,43.2,37.5,29.66,NNW,337,0.0,0.0,80,0.00,,,0.14,VWS V14.01,2013-01-30 23:48:00,
2013-01-30 23:54:00,43.3,37.6,29.66,South,180,0.0,0.0,80,0.00,,,0.14,VWS V14.01,2013-01-30 23:54:00,